sensor_id;sensor_type;location;lat;lon;timestamp;P1;durP1;ratioP1;P2;durP2;ratioP2
30948;SDS011;17637;51.984;21.208;2023-11-18T00:02:15;34.30;;;23.70;;
30948;SDS011;17637;51.984;21.208;2023-11-18T00:04:47;38.45;;;25.88;;
30948;SDS011;17637;51.984;21.208;2023-11-18T00:07:18;43.20;;;27.70;;
30948;SDS011;17637;51.984;21.208;2023-11-18T00:09:50;37.00;;;25.27;;
30948;SDS011;17637;51.984;21.208;2023-11-18T00:12:22;41.60;;;28.00;;
30948;SDS011;17637;51.984;21.208;2023-11-18T00:14:55;37.63;;;25.33;;
30948;SDS011;17637;51.984;21.208;2023-11-18T00:17:27;36.47;;;25.65;;
30948;SDS011;17637;51.984;21.208;2023-11-18T00:19:59;31.15;;;23.02;;
30948;SDS011;17637;51.984;21.208;2023-11-18T00:22:31;32.83;;;23.48;;
30948;SDS011;17637;51.984;21.208;2023-11-18T00:25:03;32.03;;;22.48;;
30948;SDS011;17637;51.984;21.208;2023-11-18T00:27:41;32.53;;;21.65;;
30948;SDS011;17637;51.984;21.208;2023-11-18T00:30:14;28.88;;;21.83;;
30948;SDS011;17637;51.984;21.208;2023-11-18T00:32:46;38.60;;;26.38;;
30948;SDS011;17637;51.984;21.208;2023-11-18T00:35:19;36.35;;;25.55;;
30948;SDS011;17637;51.984;21.208;2023-11-18T00:37:51;35.00;;;24.08;;
30948;SDS011;17637;51.984;21.208;2023-11-18T00:40:23;33.22;;;23.67;;
30948;SDS011;17637;51.984;21.208;2023-11-18T00:42:58;37.20;;;26.10;;
30948;SDS011;17637;51.984;21.208;2023-11-18T00:45:30;34.88;;;24.05;;
30948;SDS011;17637;51.984;21.208;2023-11-18T00:48:02;32.53;;;23.08;;
30948;SDS011;17637;51.984;21.208;2023-11-18T00:50:36;25.50;;;19.48;;
30948;SDS011;17637;51.984;21.208;2023-11-18T00:53:08;31.35;;;22.52;;
30948;SDS011;17637;51.984;21.208;2023-11-18T00:55:41;28.48;;;19.70;;
30948;SDS011;17637;51.984;21.208;2023-11-18T00:58:13;25.98;;;19.45;;
30948;SDS011;17637;51.984;21.208;2023-11-18T01:00:45;28.90;;;21.23;;
30948;SDS011;17637;51.984;21.208;2023-11-18T01:03:17;25.58;;;19.65;;
30948;SDS011;17637;51.984;21.208;2023-11-18T01:05:49;26.08;;;19.52;;
30948;SDS011;17637;51.984;21.208;2023-11-18T01:08:22;29.08;;;20.75;;
30948;SDS011;17637;51.984;21.208;2023-11-18T01:10:54;35.25;;;23.30;;
30948;SDS011;17637;51.984;21.208;2023-11-18T01:13:26;31.92;;;21.23;;
30948;SDS011;17637;51.984;21.208;2023-11-18T01:15:58;27.60;;;19.88;;
30948;SDS011;17637;51.984;21.208;2023-11-18T01:18:30;28.83;;;21.58;;
30948;SDS011;17637;51.984;21.208;2023-11-18T01:21:02;32.78;;;23.05;;
30948;SDS011;17637;51.984;21.208;2023-11-18T01:23:34;32.75;;;22.27;;
30948;SDS011;17637;51.984;21.208;2023-11-18T01:26:10;33.78;;;22.92;;
30948;SDS011;17637;51.984;21.208;2023-11-18T01:28:43;32.95;;;22.95;;
30948;SDS011;17637;51.984;21.208;2023-11-18T01:31:16;26.80;;;20.65;;
30948;SDS011;17637;51.984;21.208;2023-11-18T01:33:49;30.65;;;21.85;;
30948;SDS011;17637;51.984;21.208;2023-11-18T01:36:21;42.92;;;25.30;;
30948;SDS011;17637;51.984;21.208;2023-11-18T01:38:53;45.40;;;26.60;;
30948;SDS011;17637;51.984;21.208;2023-11-18T01:41:26;29.67;;;21.83;;
30948;SDS011;17637;51.984;21.208;2023-11-18T01:43:59;33.17;;;21.38;;
30948;SDS011;17637;51.984;21.208;2023-11-18T01:46:31;32.40;;;23.73;;
30948;SDS011;17637;51.984;21.208;2023-11-18T01:49:03;28.20;;;19.98;;
30948;SDS011;17637;51.984;21.208;2023-11-18T01:51:35;25.20;;;19.58;;
30948;SDS011;17637;51.984;21.208;2023-11-18T01:54:07;31.00;;;21.63;;
30948;SDS011;17637;51.984;21.208;2023-11-18T01:56:41;30.80;;;21.67;;
30948;SDS011;17637;51.984;21.208;2023-11-18T01:59:17;26.27;;;18.95;;
30948;SDS011;17637;51.984;21.208;2023-11-18T02:01:52;29.45;;;21.02;;
30948;SDS011;17637;51.984;21.208;2023-11-18T02:04:25;28.33;;;21.15;;
30948;SDS011;17637;51.984;21.208;2023-11-18T02:06:58;25.52;;;18.63;;
30948;SDS011;17637;51.984;21.208;2023-11-18T02:09:30;23.15;;;17.25;;
30948;SDS011;17637;51.984;21.208;2023-11-18T02:12:13;24.23;;;17.70;;
30948;SDS011;17637;51.984;21.208;2023-11-18T02:14:53;20.92;;;16.33;;
30948;SDS011;17637;51.984;21.208;2023-11-18T02:17:26;25.40;;;19.13;;
30948;SDS011;17637;51.984;21.208;2023-11-18T02:20:00;21.88;;;17.50;;
30948;SDS011;17637;51.984;21.208;2023-11-18T02:22:37;24.08;;;17.83;;
30948;SDS011;17637;51.984;21.208;2023-11-18T02:25:09;25.38;;;18.98;;
30948;SDS011;17637;51.984;21.208;2023-11-18T02:27:42;23.35;;;18.13;;
30948;SDS011;17637;51.984;21.208;2023-11-18T02:30:14;26.52;;;19.13;;
30948;SDS011;17637;51.984;21.208;2023-11-18T02:33:07;30.52;;;20.17;;
30948;SDS011;17637;51.984;21.208;2023-11-18T02:36:02;30.65;;;21.20;;
30948;SDS011;17637;51.984;21.208;2023-11-18T02:38:44;23.10;;;18.08;;
30948;SDS011;17637;51.984;21.208;2023-11-18T02:41:21;22.58;;;17.52;;
30948;SDS011;17637;51.984;21.208;2023-11-18T02:43:54;25.75;;;18.63;;
30948;SDS011;17637;51.984;21.208;2023-11-18T02:46:29;23.55;;;17.67;;
30948;SDS011;17637;51.984;21.208;2023-11-18T02:49:01;21.85;;;17.23;;
30948;SDS011;17637;51.984;21.208;2023-11-18T02:51:34;25.02;;;17.70;;
30948;SDS011;17637;51.984;21.208;2023-11-18T02:54:10;22.17;;;16.98;;
30948;SDS011;17637;51.984;21.208;2023-11-18T02:56:42;19.20;;;15.20;;
30948;SDS011;17637;51.984;21.208;2023-11-18T02:59:15;19.50;;;15.48;;
30948;SDS011;17637;51.984;21.208;2023-11-18T03:01:47;23.13;;;17.67;;
30948;SDS011;17637;51.984;21.208;2023-11-18T03:04:19;23.75;;;18.10;;
30948;SDS011;17637;51.984;21.208;2023-11-18T03:06:51;25.98;;;18.70;;
30948;SDS011;17637;51.984;21.208;2023-11-18T03:09:23;20.42;;;16.10;;
30948;SDS011;17637;51.984;21.208;2023-11-18T03:11:59;22.40;;;17.00;;
30948;SDS011;17637;51.984;21.208;2023-11-18T03:14:31;20.58;;;16.17;;
30948;SDS011;17637;51.984;21.208;2023-11-18T03:17:05;24.33;;;19.08;;
30948;SDS011;17637;51.984;21.208;2023-11-18T03:19:37;23.65;;;17.30;;
30948;SDS011;17637;51.984;21.208;2023-11-18T03:22:10;22.20;;;17.17;;
30948;SDS011;17637;51.984;21.208;2023-11-18T03:24:42;25.15;;;19.55;;
30948;SDS011;17637;51.984;21.208;2023-11-18T03:27:14;22.77;;;17.45;;
30948;SDS011;17637;51.984;21.208;2023-11-18T03:29:46;24.02;;;18.38;;
30948;SDS011;17637;51.984;21.208;2023-11-18T03:32:19;22.20;;;17.27;;
30948;SDS011;17637;51.984;21.208;2023-11-18T03:34:50;24.48;;;19.55;;
30948;SDS011;17637;51.984;21.208;2023-11-18T03:37:22;21.52;;;17.20;;
30948;SDS011;17637;51.984;21.208;2023-11-18T03:39:54;20.10;;;16.95;;
30948;SDS011;17637;51.984;21.208;2023-11-18T03:42:26;20.98;;;16.80;;
30948;SDS011;17637;51.984;21.208;2023-11-18T03:44:59;20.00;;;15.82;;
30948;SDS011;17637;51.984;21.208;2023-11-18T03:47:30;24.15;;;19.15;;
30948;SDS011;17637;51.984;21.208;2023-11-18T03:50:02;22.23;;;17.83;;
30948;SDS011;17637;51.984;21.208;2023-11-18T03:52:35;26.83;;;18.90;;
30948;SDS011;17637;51.984;21.208;2023-11-18T03:55:07;27.75;;;19.95;;
30948;SDS011;17637;51.984;21.208;2023-11-18T03:57:40;22.50;;;17.58;;
30948;SDS011;17637;51.984;21.208;2023-11-18T04:00:14;25.58;;;20.35;;
30948;SDS011;17637;51.984;21.208;2023-11-18T04:02:47;23.42;;;18.23;;
30948;SDS011;17637;51.984;21.208;2023-11-18T04:05:19;29.58;;;20.85;;
30948;SDS011;17637;51.984;21.208;2023-11-18T04:07:51;26.73;;;19.75;;
30948;SDS011;17637;51.984;21.208;2023-11-18T04:10:23;23.63;;;18.63;;
30948;SDS011;17637;51.984;21.208;2023-11-18T04:12:55;22.77;;;18.38;;
30948;SDS011;17637;51.984;21.208;2023-11-18T04:15:27;26.85;;;20.23;;
30948;SDS011;17637;51.984;21.208;2023-11-18T04:17:59;30.60;;;21.92;;
30948;SDS011;17637;51.984;21.208;2023-11-18T04:20:31;27.02;;;20.38;;
30948;SDS011;17637;51.984;21.208;2023-11-18T04:23:04;27.00;;;20.30;;
30948;SDS011;17637;51.984;21.208;2023-11-18T04:25:36;23.85;;;19.40;;
30948;SDS011;17637;51.984;21.208;2023-11-18T04:28:08;23.35;;;17.52;;
30948;SDS011;17637;51.984;21.208;2023-11-18T04:30:42;23.65;;;17.35;;
30948;SDS011;17637;51.984;21.208;2023-11-18T04:33:14;25.67;;;18.67;;
30948;SDS011;17637;51.984;21.208;2023-11-18T04:35:46;19.20;;;14.27;;
30948;SDS011;17637;51.984;21.208;2023-11-18T04:38:18;21.05;;;17.25;;
30948;SDS011;17637;51.984;21.208;2023-11-18T04:40:50;19.25;;;15.82;;
30948;SDS011;17637;51.984;21.208;2023-11-18T04:43:23;21.02;;;17.30;;
30948;SDS011;17637;51.984;21.208;2023-11-18T04:46:08;23.27;;;17.95;;
30948;SDS011;17637;51.984;21.208;2023-11-18T04:48:42;17.95;;;14.95;;
30948;SDS011;17637;51.984;21.208;2023-11-18T04:51:14;17.52;;;14.57;;
30948;SDS011;17637;51.984;21.208;2023-11-18T04:53:46;17.05;;;13.80;;
30948;SDS011;17637;51.984;21.208;2023-11-18T04:56:18;18.45;;;14.50;;
30948;SDS011;17637;51.984;21.208;2023-11-18T04:58:50;19.83;;;15.10;;
30948;SDS011;17637;51.984;21.208;2023-11-18T05:01:22;23.13;;;16.83;;
30948;SDS011;17637;51.984;21.208;2023-11-18T05:03:54;18.15;;;13.73;;
30948;SDS011;17637;51.984;21.208;2023-11-18T05:06:26;20.92;;;15.85;;
30948;SDS011;17637;51.984;21.208;2023-11-18T05:08:58;21.38;;;15.60;;
30948;SDS011;17637;51.984;21.208;2023-11-18T05:11:29;16.73;;;13.35;;
30948;SDS011;17637;51.984;21.208;2023-11-18T05:14:01;17.02;;;14.25;;
30948;SDS011;17637;51.984;21.208;2023-11-18T05:16:35;16.77;;;12.90;;
30948;SDS011;17637;51.984;21.208;2023-11-18T05:19:06;16.30;;;12.85;;
30948;SDS011;17637;51.984;21.208;2023-11-18T05:21:39;20.55;;;14.57;;
30948;SDS011;17637;51.984;21.208;2023-11-18T05:24:10;17.83;;;14.23;;
30948;SDS011;17637;51.984;21.208;2023-11-18T05:26:42;18.67;;;14.50;;
30948;SDS011;17637;51.984;21.208;2023-11-18T05:29:14;17.75;;;13.35;;
30948;SDS011;17637;51.984;21.208;2023-11-18T05:31:48;13.20;;;11.52;;
30948;SDS011;17637;51.984;21.208;2023-11-18T05:34:20;17.17;;;13.40;;
30948;SDS011;17637;51.984;21.208;2023-11-18T05:36:52;13.63;;;12.18;;
30948;SDS011;17637;51.984;21.208;2023-11-18T05:39:25;13.85;;;11.45;;
30948;SDS011;17637;51.984;21.208;2023-11-18T05:41:59;14.13;;;11.98;;
30948;SDS011;17637;51.984;21.208;2023-11-18T05:44:31;13.35;;;11.90;;
30948;SDS011;17637;51.984;21.208;2023-11-18T05:47:08;15.65;;;12.43;;
30948;SDS011;17637;51.984;21.208;2023-11-18T05:49:43;14.65;;;12.35;;
30948;SDS011;17637;51.984;21.208;2023-11-18T05:52:15;15.43;;;12.40;;
30948;SDS011;17637;51.984;21.208;2023-11-18T05:54:47;15.60;;;12.93;;
30948;SDS011;17637;51.984;21.208;2023-11-18T05:57:21;16.85;;;13.48;;
30948;SDS011;17637;51.984;21.208;2023-11-18T05:59:53;15.52;;;12.90;;
30948;SDS011;17637;51.984;21.208;2023-11-18T06:02:26;15.10;;;12.50;;
30948;SDS011;17637;51.984;21.208;2023-11-18T06:04:58;12.90;;;10.10;;
30948;SDS011;17637;51.984;21.208;2023-11-18T06:07:30;12.18;;;10.88;;
30948;SDS011;17637;51.984;21.208;2023-11-18T06:10:02;14.15;;;11.32;;
30948;SDS011;17637;51.984;21.208;2023-11-18T06:12:36;13.13;;;10.70;;
30948;SDS011;17637;51.984;21.208;2023-11-18T06:15:11;13.07;;;10.55;;
30948;SDS011;17637;51.984;21.208;2023-11-18T06:17:45;13.13;;;10.63;;
30948;SDS011;17637;51.984;21.208;2023-11-18T06:20:18;13.38;;;10.32;;
30948;SDS011;17637;51.984;21.208;2023-11-18T06:22:51;16.02;;;12.23;;
30948;SDS011;17637;51.984;21.208;2023-11-18T06:25:23;16.08;;;12.20;;
30948;SDS011;17637;51.984;21.208;2023-11-18T06:27:57;15.75;;;11.77;;
30948;SDS011;17637;51.984;21.208;2023-11-18T06:30:29;12.32;;;10.13;;
30948;SDS011;17637;51.984;21.208;2023-11-18T06:33:02;13.95;;;11.48;;
30948;SDS011;17637;51.984;21.208;2023-11-18T06:35:34;14.27;;;10.75;;
30948;SDS011;17637;51.984;21.208;2023-11-18T06:38:06;13.18;;;10.85;;
30948;SDS011;17637;51.984;21.208;2023-11-18T06:40:39;13.40;;;10.85;;
30948;SDS011;17637;51.984;21.208;2023-11-18T06:43:11;12.02;;;9.52;;
30948;SDS011;17637;51.984;21.208;2023-11-18T06:45:43;13.75;;;10.70;;
30948;SDS011;17637;51.984;21.208;2023-11-18T06:48:15;12.23;;;9.80;;
30948;SDS011;17637;51.984;21.208;2023-11-18T06:50:51;11.32;;;9.82;;
30948;SDS011;17637;51.984;21.208;2023-11-18T06:53:23;12.60;;;10.23;;
30948;SDS011;17637;51.984;21.208;2023-11-18T06:55:55;12.57;;;9.95;;
30948;SDS011;17637;51.984;21.208;2023-11-18T06:58:27;14.27;;;10.10;;
30948;SDS011;17637;51.984;21.208;2023-11-18T07:00:59;12.88;;;10.90;;
30948;SDS011;17637;51.984;21.208;2023-11-18T07:03:31;12.88;;;11.15;;
30948;SDS011;17637;51.984;21.208;2023-11-18T07:06:03;10.13;;;8.93;;
30948;SDS011;17637;51.984;21.208;2023-11-18T07:08:37;11.27;;;9.93;;
30948;SDS011;17637;51.984;21.208;2023-11-18T07:11:09;11.68;;;9.95;;
30948;SDS011;17637;51.984;21.208;2023-11-18T07:13:41;13.02;;;9.95;;
30948;SDS011;17637;51.984;21.208;2023-11-18T07:16:14;10.25;;;8.90;;
30948;SDS011;17637;51.984;21.208;2023-11-18T07:18:46;12.82;;;10.40;;
30948;SDS011;17637;51.984;21.208;2023-11-18T07:21:18;12.55;;;9.95;;
30948;SDS011;17637;51.984;21.208;2023-11-18T07:23:50;10.88;;;9.18;;
30948;SDS011;17637;51.984;21.208;2023-11-18T07:26:22;10.38;;;8.80;;
30948;SDS011;17637;51.984;21.208;2023-11-18T07:28:55;11.07;;;9.38;;
30948;SDS011;17637;51.984;21.208;2023-11-18T07:31:27;12.05;;;9.07;;
30948;SDS011;17637;51.984;21.208;2023-11-18T07:33:59;10.73;;;8.93;;
30948;SDS011;17637;51.984;21.208;2023-11-18T07:36:31;13.05;;;9.90;;
30948;SDS011;17637;51.984;21.208;2023-11-18T07:39:04;10.68;;;8.95;;
30948;SDS011;17637;51.984;21.208;2023-11-18T07:41:36;13.60;;;10.52;;
30948;SDS011;17637;51.984;21.208;2023-11-18T07:44:08;12.23;;;10.15;;
30948;SDS011;17637;51.984;21.208;2023-11-18T07:46:44;11.32;;;9.57;;
30948;SDS011;17637;51.984;21.208;2023-11-18T07:49:16;12.15;;;10.18;;
30948;SDS011;17637;51.984;21.208;2023-11-18T07:51:55;14.15;;;10.98;;
30948;SDS011;17637;51.984;21.208;2023-11-18T07:54:28;13.30;;;10.75;;
30948;SDS011;17637;51.984;21.208;2023-11-18T07:57:00;16.63;;;11.65;;
30948;SDS011;17637;51.984;21.208;2023-11-18T07:59:32;13.57;;;10.05;;
30948;SDS011;17637;51.984;21.208;2023-11-18T08:02:04;13.18;;;10.43;;
30948;SDS011;17637;51.984;21.208;2023-11-18T08:04:40;13.07;;;10.27;;
30948;SDS011;17637;51.984;21.208;2023-11-18T08:07:12;14.13;;;11.02;;
30948;SDS011;17637;51.984;21.208;2023-11-18T08:09:44;23.00;;;15.05;;
30948;SDS011;17637;51.984;21.208;2023-11-18T08:12:16;16.98;;;12.77;;
30948;SDS011;17637;51.984;21.208;2023-11-18T08:14:48;24.65;;;16.17;;
30948;SDS011;17637;51.984;21.208;2023-11-18T08:17:20;20.25;;;13.43;;
30948;SDS011;17637;51.984;21.208;2023-11-18T08:19:52;14.55;;;10.75;;
30948;SDS011;17637;51.984;21.208;2023-11-18T08:22:24;15.85;;;11.82;;
30948;SDS011;17637;51.984;21.208;2023-11-18T08:24:56;17.85;;;13.10;;
30948;SDS011;17637;51.984;21.208;2023-11-18T08:27:28;18.67;;;13.63;;
30948;SDS011;17637;51.984;21.208;2023-11-18T08:30:00;18.75;;;13.63;;
30948;SDS011;17637;51.984;21.208;2023-11-18T08:32:32;16.05;;;12.48;;
30948;SDS011;17637;51.984;21.208;2023-11-18T08:35:06;17.88;;;13.00;;
30948;SDS011;17637;51.984;21.208;2023-11-18T08:37:41;20.65;;;13.65;;
30948;SDS011;17637;51.984;21.208;2023-11-18T08:40:14;17.73;;;12.32;;
30948;SDS011;17637;51.984;21.208;2023-11-18T08:42:51;22.35;;;14.10;;
30948;SDS011;17637;51.984;21.208;2023-11-18T08:45:25;15.23;;;11.10;;
30948;SDS011;17637;51.984;21.208;2023-11-18T08:48:02;19.45;;;14.50;;
30948;SDS011;17637;51.984;21.208;2023-11-18T08:53:15;17.38;;;12.98;;
30948;SDS011;17637;51.984;21.208;2023-11-18T08:55:50;15.13;;;11.75;;
30948;SDS011;17637;51.984;21.208;2023-11-18T08:58:26;19.08;;;13.85;;
30948;SDS011;17637;51.984;21.208;2023-11-18T09:01:05;16.90;;;12.57;;
30948;SDS011;17637;51.984;21.208;2023-11-18T09:03:41;14.40;;;11.45;;
30948;SDS011;17637;51.984;21.208;2023-11-18T09:06:20;15.30;;;10.80;;
30948;SDS011;17637;51.984;21.208;2023-11-18T09:09:00;14.90;;;11.23;;
30948;SDS011;17637;51.984;21.208;2023-11-18T09:11:37;13.48;;;11.13;;
30948;SDS011;17637;51.984;21.208;2023-11-18T09:14:12;15.18;;;10.98;;
30948;SDS011;17637;51.984;21.208;2023-11-18T09:16:46;14.25;;;11.27;;
30948;SDS011;17637;51.984;21.208;2023-11-18T09:19:18;15.07;;;11.93;;
30948;SDS011;17637;51.984;21.208;2023-11-18T09:21:52;19.40;;;14.35;;
30948;SDS011;17637;51.984;21.208;2023-11-18T09:24:25;14.65;;;11.38;;
30948;SDS011;17637;51.984;21.208;2023-11-18T09:26:57;28.67;;;17.55;;
30948;SDS011;17637;51.984;21.208;2023-11-18T09:29:29;35.85;;;19.08;;
30948;SDS011;17637;51.984;21.208;2023-11-18T09:32:01;22.67;;;13.82;;
30948;SDS011;17637;51.984;21.208;2023-11-18T09:34:37;27.85;;;16.98;;
30948;SDS011;17637;51.984;21.208;2023-11-18T09:37:11;17.95;;;12.82;;
30948;SDS011;17637;51.984;21.208;2023-11-18T09:39:43;20.15;;;13.18;;
30948;SDS011;17637;51.984;21.208;2023-11-18T09:42:17;17.65;;;12.65;;
30948;SDS011;17637;51.984;21.208;2023-11-18T09:44:51;16.52;;;12.52;;
30948;SDS011;17637;51.984;21.208;2023-11-18T09:47:23;20.80;;;12.55;;
30948;SDS011;17637;51.984;21.208;2023-11-18T09:49:59;15.55;;;12.18;;
30948;SDS011;17637;51.984;21.208;2023-11-18T09:52:34;16.95;;;12.52;;
30948;SDS011;17637;51.984;21.208;2023-11-18T09:55:15;14.32;;;10.63;;
30948;SDS011;17637;51.984;21.208;2023-11-18T09:58:04;17.35;;;11.80;;
30948;SDS011;17637;51.984;21.208;2023-11-18T10:00:40;14.65;;;11.23;;
30948;SDS011;17637;51.984;21.208;2023-11-18T10:03:13;15.85;;;12.00;;
30948;SDS011;17637;51.984;21.208;2023-11-18T10:05:47;21.02;;;13.10;;
30948;SDS011;17637;51.984;21.208;2023-11-18T10:08:20;19.67;;;13.95;;
30948;SDS011;17637;51.984;21.208;2023-11-18T10:10:57;19.38;;;14.43;;
30948;SDS011;17637;51.984;21.208;2023-11-18T10:13:40;18.63;;;14.40;;
30948;SDS011;17637;51.984;21.208;2023-11-18T10:16:12;20.33;;;14.20;;
30948;SDS011;17637;51.984;21.208;2023-11-18T10:18:44;25.15;;;17.08;;
30948;SDS011;17637;51.984;21.208;2023-11-18T10:21:20;24.75;;;15.52;;
30948;SDS011;17637;51.984;21.208;2023-11-18T10:24:11;20.48;;;15.10;;
30948;SDS011;17637;51.984;21.208;2023-11-18T10:26:53;19.85;;;14.13;;
30948;SDS011;17637;51.984;21.208;2023-11-18T10:29:28;17.05;;;12.88;;
30948;SDS011;17637;51.984;21.208;2023-11-18T10:32:06;21.63;;;15.95;;
30948;SDS011;17637;51.984;21.208;2023-11-18T10:34:48;27.27;;;17.90;;
30948;SDS011;17637;51.984;21.208;2023-11-18T10:37:26;25.73;;;17.88;;
30948;SDS011;17637;51.984;21.208;2023-11-18T10:40:03;21.75;;;15.63;;
30948;SDS011;17637;51.984;21.208;2023-11-18T10:42:36;21.60;;;15.90;;
30948;SDS011;17637;51.984;21.208;2023-11-18T10:45:08;24.95;;;17.92;;
30948;SDS011;17637;51.984;21.208;2023-11-18T10:47:44;24.70;;;17.10;;
30948;SDS011;17637;51.984;21.208;2023-11-18T10:50:19;18.95;;;14.07;;
30948;SDS011;17637;51.984;21.208;2023-11-18T10:52:53;21.48;;;15.30;;
30948;SDS011;17637;51.984;21.208;2023-11-18T10:55:33;19.88;;;15.55;;
30948;SDS011;17637;51.984;21.208;2023-11-18T10:58:07;25.17;;;16.80;;
30948;SDS011;17637;51.984;21.208;2023-11-18T11:00:46;25.42;;;17.08;;
30948;SDS011;17637;51.984;21.208;2023-11-18T11:03:22;24.42;;;17.80;;
30948;SDS011;17637;51.984;21.208;2023-11-18T11:05:57;24.65;;;17.85;;
30948;SDS011;17637;51.984;21.208;2023-11-18T11:08:29;24.13;;;16.90;;
30948;SDS011;17637;51.984;21.208;2023-11-18T11:11:12;22.88;;;17.35;;
30948;SDS011;17637;51.984;21.208;2023-11-18T11:13:56;24.30;;;17.52;;
30948;SDS011;17637;51.984;21.208;2023-11-18T11:16:38;22.38;;;16.13;;
30948;SDS011;17637;51.984;21.208;2023-11-18T11:22:18;20.00;;;15.18;;
30948;SDS011;17637;51.984;21.208;2023-11-18T11:25:09;22.98;;;16.95;;
30948;SDS011;17637;51.984;21.208;2023-11-18T11:27:55;22.90;;;16.70;;
30948;SDS011;17637;51.984;21.208;2023-11-18T11:30:40;26.65;;;18.80;;
30948;SDS011;17637;51.984;21.208;2023-11-18T11:33:25;21.92;;;16.10;;
30948;SDS011;17637;51.984;21.208;2023-11-18T11:36:12;24.27;;;16.85;;
30948;SDS011;17637;51.984;21.208;2023-11-18T11:38:54;22.35;;;16.25;;
30948;SDS011;17637;51.984;21.208;2023-11-18T11:41:28;20.48;;;14.50;;
30948;SDS011;17637;51.984;21.208;2023-11-18T11:44:01;25.00;;;17.67;;
30948;SDS011;17637;51.984;21.208;2023-11-18T11:46:33;21.55;;;15.98;;
30948;SDS011;17637;51.984;21.208;2023-11-18T11:49:07;24.48;;;17.38;;
30948;SDS011;17637;51.984;21.208;2023-11-18T11:51:57;27.17;;;20.00;;
30948;SDS011;17637;51.984;21.208;2023-11-18T11:54:38;26.88;;;19.35;;
30948;SDS011;17637;51.984;21.208;2023-11-18T11:57:16;30.23;;;19.25;;
30948;SDS011;17637;51.984;21.208;2023-11-18T12:02:26;23.35;;;16.90;;
30948;SDS011;17637;51.984;21.208;2023-11-18T12:05:04;26.48;;;18.25;;
30948;SDS011;17637;51.984;21.208;2023-11-18T12:07:39;23.27;;;17.00;;
30948;SDS011;17637;51.984;21.208;2023-11-18T12:10:11;25.88;;;18.55;;
30948;SDS011;17637;51.984;21.208;2023-11-18T12:13:06;28.10;;;18.77;;
30948;SDS011;17637;51.984;21.208;2023-11-18T12:15:52;24.75;;;18.70;;
30948;SDS011;17637;51.984;21.208;2023-11-18T12:18:26;35.38;;;23.83;;
30948;SDS011;17637;51.984;21.208;2023-11-18T12:20:58;28.00;;;20.02;;
30948;SDS011;17637;51.984;21.208;2023-11-18T12:23:33;36.95;;;24.90;;
30948;SDS011;17637;51.984;21.208;2023-11-18T12:26:37;39.03;;;26.30;;
30948;SDS011;17637;51.984;21.208;2023-11-18T12:29:33;28.13;;;19.75;;
30948;SDS011;17637;51.984;21.208;2023-11-18T12:32:05;28.98;;;21.90;;
30948;SDS011;17637;51.984;21.208;2023-11-18T12:34:53;32.85;;;23.60;;
30948;SDS011;17637;51.984;21.208;2023-11-18T12:37:33;32.28;;;23.05;;
30948;SDS011;17637;51.984;21.208;2023-11-18T12:49:27;31.55;;;22.52;;
30948;SDS011;17637;51.984;21.208;2023-11-18T12:51:59;35.72;;;24.90;;
30948;SDS011;17637;51.984;21.208;2023-11-18T12:54:31;36.42;;;25.13;;
30948;SDS011;17637;51.984;21.208;2023-11-18T12:57:05;36.15;;;25.10;;
30948;SDS011;17637;51.984;21.208;2023-11-18T12:59:40;30.05;;;21.90;;
30948;SDS011;17637;51.984;21.208;2023-11-18T13:02:13;33.05;;;22.80;;
30948;SDS011;17637;51.984;21.208;2023-11-18T13:04:51;38.65;;;26.25;;
30948;SDS011;17637;51.984;21.208;2023-11-18T13:07:24;35.67;;;25.20;;
30948;SDS011;17637;51.984;21.208;2023-11-18T13:09:56;35.45;;;24.55;;
30948;SDS011;17637;51.984;21.208;2023-11-18T13:12:28;36.97;;;24.33;;
30948;SDS011;17637;51.984;21.208;2023-11-18T13:15:00;32.13;;;23.08;;
30948;SDS011;17637;51.984;21.208;2023-11-18T13:17:32;36.45;;;24.52;;
30948;SDS011;17637;51.984;21.208;2023-11-18T13:20:13;43.17;;;28.80;;
30948;SDS011;17637;51.984;21.208;2023-11-18T13:22:46;76.72;;;46.10;;
30948;SDS011;17637;51.984;21.208;2023-11-18T13:25:19;64.13;;;40.08;;
30948;SDS011;17637;51.984;21.208;2023-11-18T13:27:52;89.47;;;52.17;;
30948;SDS011;17637;51.984;21.208;2023-11-18T13:30:25;49.40;;;31.77;;
30948;SDS011;17637;51.984;21.208;2023-11-18T13:32:58;49.05;;;32.92;;
30948;SDS011;17637;51.984;21.208;2023-11-18T13:35:30;46.97;;;32.70;;
30948;SDS011;17637;51.984;21.208;2023-11-18T13:38:02;42.70;;;28.13;;
30948;SDS011;17637;51.984;21.208;2023-11-18T13:40:43;42.92;;;27.27;;
30948;SDS011;17637;51.984;21.208;2023-11-18T13:43:19;35.55;;;22.70;;
30948;SDS011;17637;51.984;21.208;2023-11-18T13:45:53;39.60;;;25.98;;
30948;SDS011;17637;51.984;21.208;2023-11-18T13:48:27;41.65;;;29.63;;
30948;SDS011;17637;51.984;21.208;2023-11-18T13:50:59;39.60;;;27.70;;
30948;SDS011;17637;51.984;21.208;2023-11-18T13:53:31;33.17;;;20.98;;
30948;SDS011;17637;51.984;21.208;2023-11-18T13:56:03;38.58;;;26.42;;
30948;SDS011;17637;51.984;21.208;2023-11-18T13:58:36;37.42;;;25.08;;
30948;SDS011;17637;51.984;21.208;2023-11-18T14:01:10;43.00;;;26.45;;
30948;SDS011;17637;51.984;21.208;2023-11-18T14:03:43;37.55;;;25.65;;
30948;SDS011;17637;51.984;21.208;2023-11-18T14:06:21;35.85;;;24.73;;
30948;SDS011;17637;51.984;21.208;2023-11-18T14:08:54;36.17;;;26.30;;
30948;SDS011;17637;51.984;21.208;2023-11-18T14:11:26;40.90;;;27.45;;
30948;SDS011;17637;51.984;21.208;2023-11-18T14:13:58;34.47;;;23.48;;
30948;SDS011;17637;51.984;21.208;2023-11-18T14:16:30;36.72;;;24.83;;
30948;SDS011;17637;51.984;21.208;2023-11-18T14:19:02;38.17;;;25.95;;
30948;SDS011;17637;51.984;21.208;2023-11-18T14:21:37;48.17;;;35.60;;
30948;SDS011;17637;51.984;21.208;2023-11-18T14:24:09;35.53;;;23.85;;
30948;SDS011;17637;51.984;21.208;2023-11-18T14:26:42;44.20;;;30.88;;
30948;SDS011;17637;51.984;21.208;2023-11-18T14:29:14;40.08;;;27.55;;
30948;SDS011;17637;51.984;21.208;2023-11-18T14:31:45;40.80;;;27.70;;
30948;SDS011;17637;51.984;21.208;2023-11-18T14:34:17;38.70;;;29.35;;
30948;SDS011;17637;51.984;21.208;2023-11-18T14:36:54;47.70;;;33.50;;
30948;SDS011;17637;51.984;21.208;2023-11-18T14:39:27;44.13;;;30.83;;
30948;SDS011;17637;51.984;21.208;2023-11-18T14:42:01;42.85;;;29.77;;
30948;SDS011;17637;51.984;21.208;2023-11-18T14:44:33;38.70;;;25.98;;
30948;SDS011;17637;51.984;21.208;2023-11-18T14:47:05;39.13;;;26.92;;
30948;SDS011;17637;51.984;21.208;2023-11-18T14:49:38;40.10;;;25.67;;
30948;SDS011;17637;51.984;21.208;2023-11-18T14:52:10;53.72;;;33.65;;
30948;SDS011;17637;51.984;21.208;2023-11-18T14:54:43;71.95;;;39.63;;
30948;SDS011;17637;51.984;21.208;2023-11-18T14:57:17;55.15;;;32.78;;
30948;SDS011;17637;51.984;21.208;2023-11-18T14:59:51;51.95;;;32.45;;
30948;SDS011;17637;51.984;21.208;2023-11-18T15:02:22;38.75;;;26.00;;
30948;SDS011;17637;51.984;21.208;2023-11-18T15:04:56;47.97;;;30.60;;
30948;SDS011;17637;51.984;21.208;2023-11-18T15:07:29;45.38;;;30.40;;